TimeCDT,TemperatureF,Dew PointF,Humidity,Sea Level PressureIn,VisibilityMPH,Wind Direction,Wind SpeedMPH,Gust SpeedMPH,PrecipitationIn,Events,Conditions,WindDirDegrees,DateUTC
12:54 AM,57.0,45.0,64,29.95,10.0,SSE,3.5,-,N/A,,Clear,150,2012-10-21 05:54:00
1:54 AM,57.9,45.0,62,29.96,10.0,SSE,4.6,-,N/A,,Clear,150,2012-10-21 06:54:00
2:54 AM,57.9,45.0,62,29.95,10.0,SSE,4.6,-,N/A,,Clear,160,2012-10-21 07:54:00
3:54 AM,57.0,45.0,64,29.96,10.0,SSE,3.5,-,N/A,,Clear,150,2012-10-21 08:54:00
4:54 AM,57.0,45.0,64,29.98,10.0,SSE,3.5,-,N/A,,Scattered Clouds,150,2012-10-21 09:54:00
5:54 AM,54.0,45.0,72,29.99,10.0,South,4.6,-,N/A,,Partly Cloudy,190,2012-10-21 10:54:00
6:54 AM,57.0,45.0,64,30.01,10.0,SSE,4.6,-,N/A,,Partly Cloudy,160,2012-10-21 11:54:00
7:54 AM,57.9,46.0,65,30.03,10.0,SSE,4.6,-,N/A,,Partly Cloudy,160,2012-10-21 12:54:00
8:54 AM,62.1,48.0,60,30.04,10.0,South,10.4,-,N/A,,Scattered Clouds,170,2012-10-21 13:54:00
9:54 AM,68.0,48.0,49,30.05,10.0,South,10.4,-,N/A,,Scattered Clouds,180,2012-10-21 14:54:00
10:16 AM,71.6,48.2,43,30.05,10.0,South,8.1,-,N/A,,Mostly Cloudy,190,2012-10-21 15:16:00
10:54 AM,72.0,46.9,41,30.05,10.0,SSW,11.5,18.4,N/A,,Overcast,200,2012-10-21 15:54:00
11:13 AM,73.4,48.2,41,30.05,10.0,SSW,12.7,18.4,N/A,,Mostly Cloudy,200,2012-10-21 16:13:00
11:54 AM,73.9,48.9,41,30.04,10.0,SSW,12.7,21.9,N/A,,Mostly Cloudy,200,2012-10-21 16:54:00
12:54 PM,75.9,50.0,40,30.03,10.0,SSW,11.5,-,N/A,,Overcast,200,2012-10-21 17:54:00
1:54 PM,79.0,50.0,36,30.00,10.0,South,15.0,19.6,N/A,,Mostly Cloudy,190,2012-10-21 18:54:00
2:54 PM,80.1,51.1,36,29.99,10.0,South,15.0,19.6,N/A,,Mostly Cloudy,190,2012-10-21 19:54:00
3:54 PM,79.0,51.1,38,29.99,10.0,South,8.1,-,N/A,,Mostly Cloudy,180,2012-10-21 20:54:00
4:54 PM,79.0,48.9,35,29.99,10.0,South,12.7,-,N/A,,Scattered Clouds,180,2012-10-21 21:54:00
5:54 PM,75.0,46.9,37,30.00,10.0,South,9.2,-,N/A,,Mostly Cloudy,190,2012-10-21 22:54:00
6:54 PM,72.0,48.0,43,30.01,10.0,South,8.1,-,N/A,,Mostly Cloudy,180,2012-10-21 23:54:00
7:54 PM,71.1,48.0,44,30.02,10.0,South,6.9,-,N/A,,Scattered Clouds,170,2012-10-22 00:54:00
8:54 PM,66.9,50.0,54,30.02,10.0,South,4.6,-,N/A,,Scattered Clouds,180,2012-10-22 01:54:00
9:54 PM,69.1,51.1,53,30.03,10.0,South,8.1,-,N/A,,Partly Cloudy,170,2012-10-22 02:54:00
10:54 PM,66.9,52.0,59,30.03,10.0,South,8.1,-,N/A,,Partly Cloudy,170,2012-10-22 03:54:00
11:54 PM,66.0,52.0,60,30.02,10.0,South,9.2,-,N/A,,Partly Cloudy,170,2012-10-22 04:54:00